Time;durP1;ratioP1;P1;durP2;ratioP2;P2;SDS_P1;SDS_P2;PMS_P1;PMS_P2;Temp;Humidity;BMP_temperature;BMP_pressure;BME280_temperature;BME280_humidity;BME280_pressure;Samples;Min_cycle;Max_cycle;Signal;HPM_P1;HPM_P2
2020/12/29 00:01:43;;;;;;;26.82;14.30;;;;;;;2.98;72.32;95225.56;1794139;79;21133;-72
2020/12/29 00:04:13;;;;;;;18.05;9.95;;;;;;;2.98;71.98;95223.67;1780486;80;21550;-73
2020/12/29 00:06:50;;;;;;;19.95;8.80;;;;;;;3.00;72.20;95226.87;1784457;79;21553;-72
2020/12/29 00:09:18;;;;;;;32.28;13.05;;;;;;;3.04;72.17;95215.02;1785031;80;21189;-72
2020/12/29 00:11:45;;;;;;;27.02;13.90;;;;;;;2.98;73.68;95210.85;1784921;79;21488;-72
2020/12/29 00:14:11;;;;;;;20.97;10.55;;;;;;;2.93;72.95;95206.96;1784987;80;21209;-72
2020/12/29 00:16:38;;;;;;;24.77;11.12;;;;;;;2.78;73.62;95205.38;1784967;79;21554;-72
2020/12/29 00:19:14;;;;;;;21.12;9.23;;;;;;;2.71;73.33;95204.44;1784918;80;21495;-72
2020/12/29 00:21:41;;;;;;;21.45;9.00;;;;;;;2.60;74.81;95198.25;1784000;79;21047;-72
2020/12/29 00:24:10;;;;;;;21.50;8.88;;;;;;;2.52;73.89;95191.17;1785072;80;21182;-72
2020/12/29 00:26:36;;;;;;;16.37;8.68;;;;;;;2.51;73.62;95200.28;1785086;79;21134;-72
2020/12/29 00:29:03;;;;;;;20.43;9.90;;;;;;;2.42;74.30;95194.59;1785067;80;21192;-73
2020/12/29 00:31:29;;;;;;;19.20;9.48;;;;;;;2.26;76.21;95187.39;1784911;79;21547;-73
2020/12/29 00:33:56;;;;;;;16.97;8.38;;;;;;;2.21;76.27;95184.80;1784913;80;21047;-72
2020/12/29 00:36:23;;;;;;;15.25;8.93;;;;;;;2.18;75.22;95186.19;1785016;79;21047;-73
2020/12/29 00:38:49;;;;;;;14.60;8.88;;;;;;;2.12;74.76;95186.02;1784944;80;21562;-72
2020/12/29 00:41:15;;;;;;;14.78;8.33;;;;;;;2.02;75.78;95175.52;1784986;79;22158;-73
2020/12/29 00:43:42;;;;;;;16.57;8.30;;;;;;;2.00;74.98;95176.37;1785006;80;21055;-73
2020/12/29 00:46:13;;;;;;;16.60;7.55;;;;;;;1.90;76.96;95177.34;1784924;79;21106;-72
2020/12/29 00:48:40;;;;;;;15.95;8.15;;;;;;;1.84;76.18;95167.03;1784944;80;21098;-73
2020/12/29 00:51:13;;;;;;;14.83;8.43;;;;;;;1.79;78.07;95163.89;1785022;79;21142;-72
2020/12/29 00:53:39;;;;;;;12.98;7.03;;;;;;;1.80;76.39;95170.05;1784893;80;21187;-73
2020/12/29 00:56:06;;;;;;;15.18;7.00;;;;;;;1.84;76.00;95171.03;1784878;79;21476;-73
2020/12/29 00:58:32;;;;;;;13.18;5.72;;;;;;;1.83;75.64;95163.56;1784878;80;21019;-73
2020/12/29 01:00:59;;;;;;;13.83;7.80;;;;;;;1.79;77.15;95153.21;1784880;79;21122;-73
2020/12/29 01:03:25;;;;;;;22.52;10.65;;;;;;;1.80;77.52;95164.16;1784931;80;21444;-73
2020/12/29 01:05:52;;;;;;;18.00;9.75;;;;;;;1.78;79.36;95144.16;1784927;79;22278;-73
2020/12/29 01:08:19;;;;;;;18.87;8.93;;;;;;;1.83;77.85;95142.20;1784886;80;21158;-73
2020/12/29 01:10:46;;;;;;;22.35;9.03;;;;;;;1.86;77.39;95140.81;1784305;79;21072;-73
2020/12/29 01:13:13;;;;;;;15.08;8.83;;;;;;;1.88;77.10;95143.47;1751856;80;21066;-73
2020/12/29 01:15:40;;;;;;;22.17;10.48;;;;;;;1.96;77.52;95150.77;1784459;79;21086;-73
2020/12/29 01:18:06;;;;;;;21.30;10.30;;;;;;;2.05;76.63;95137.56;1784263;80;21582;-73
2020/12/29 01:20:33;;;;;;;18.90;9.35;;;;;;;2.09;77.45;95125.18;1784275;79;21476;-73
2020/12/29 01:22:59;;;;;;;15.75;7.33;;;;;;;2.05;78.40;95135.41;1784240;80;21571;-73
2020/12/29 01:25:25;;;;;;;19.65;7.67;;;;;;;2.03;77.36;95142.38;1784364;79;21456;-73
2020/12/29 01:27:52;;;;;;;20.35;8.80;;;;;;;2.02;76.66;95143.47;1784291;80;21058;-73
2020/12/29 01:30:19;;;;;;;12.98;7.40;;;;;;;2.03;76.72;95150.39;1784466;79;21202;-74
2020/12/29 01:32:45;;;;;;;28.65;11.95;;;;;;;1.93;76.95;95143.36;1784326;80;21126;-73
2020/12/29 01:35:11;;;;;;;18.87;8.28;;;;;;;1.93;77.76;95147.36;1784324;79;21666;-73
2020/12/29 01:37:44;;;;;;;18.48;10.30;;;;;;;2.05;77.12;95150.09;1784347;80;21550;-73
2020/12/29 01:40:13;;;;;;;32.45;15.88;;;;;;;2.05;76.96;95134.06;1784399;79;21555;-73
2020/12/29 01:42:40;;;;;;;26.52;13.45;;;;;;;2.06;77.79;95135.13;1784440;80;21185;-73
2020/12/29 01:45:09;;;;;;;23.83;12.75;;;;;;;2.03;76.94;95142.38;1784361;79;21154;-73
2020/12/29 01:47:38;;;;;;;26.90;12.40;;;;;;;2.04;76.70;95129.27;1784557;80;21034;-73
2020/12/29 01:50:15;;;;;;;;;;;;;;;2.05;77.35;95126.05;1786951;79;21111;-73
2020/12/29 01:52:41;;;;;;;12.63;6.72;;;;;;;2.12;76.75;95129.13;1784320;80;20215;-73
2020/12/29 01:55:09;;;;;;;12.30;6.58;;;;;;;2.18;76.77;95131.42;1784341;79;21202;-74
2020/12/29 01:57:36;;;;;;;44.10;18.37;;;;;;;2.19;77.32;95132.20;1784472;80;21208;-74
2020/12/29 02:00:08;;;;;;;33.65;14.43;;;;;;;2.21;77.39;95132.70;1784398;79;21551;-73
2020/12/29 02:02:34;;;;;;;85.07;35.95;;;;;;;2.26;77.71;95125.94;1784289;80;21255;-73
2020/12/29 02:05:01;;;;;;;116.62;49.65;;;;;;;2.28;78.80;95129.64;1784404;79;21166;-74
2020/12/29 02:07:28;;;;;;;62.17;27.48;;;;;;;2.31;77.88;95125.84;1784271;80;21189;-73
2020/12/29 02:09:55;;;;;;;39.80;19.80;;;;;;;2.26;79.34;95110.69;1784243;79;21536;-73
2020/12/29 02:12:23;;;;;;;47.13;23.57;;;;;;;2.31;77.62;95114.34;1784206;80;21202;-73
2020/12/29 02:14:50;;;;;;;46.48;22.73;;;;;;;2.37;77.50;95111.82;1784463;80;21574;-73
2020/12/29 02:17:16;;;;;;;33.35;17.95;;;;;;;2.41;77.31;95122.97;1784393;79;21196;-73
2020/12/29 02:19:43;;;;;;;38.45;19.35;;;;;;;2.46;77.29;95114.83;1784394;80;21241;-73
2020/12/29 02:22:09;;;;;;;31.80;17.87;;;;;;;2.55;77.29;95122.39;1784272;79;21081;-73
2020/12/29 02:24:36;;;;;;;36.93;17.30;;;;;;;2.65;77.09;95119.27;1784447;80;21448;-74
2020/12/29 02:27:04;;;;;;;29.35;15.43;;;;;;;2.73;78.15;95110.54;1784297;79;21043;-74
2020/12/29 02:29:33;;;;;;;30.68;17.35;;;;;;;2.80;77.87;95111.72;1784263;80;21452;-73
2020/12/29 02:32:02;;;;;;;31.45;16.00;;;;;;;2.85;77.43;95115.39;1784501;79;21530;-74
2020/12/29 02:34:28;;;;;;;26.55;13.90;;;;;;;2.90;77.50;95109.36;1752032;80;21101;-74
2020/12/29 02:36:54;;;;;;;26.35;13.30;;;;;;;2.96;77.83;95097.47;1784281;79;21646;-73
2020/12/29 02:39:21;;;;;;;23.32;11.70;;;;;;;3.18;78.12;95099.94;1784323;80;21464;-73
2020/12/29 02:41:47;;;;;;;17.98;8.60;;;;;;;3.48;79.69;95095.73;1784403;79;21122;-74
2020/12/29 02:44:19;;;;;;;43.63;16.80;;;;;;;3.78;78.84;95083.48;1784218;80;21256;-74
2020/12/29 02:46:49;;;;;;;17.52;6.30;;;;;;;4.03;78.64;95077.45;1752660;80;21930;-73
2020/12/29 02:49:16;;;;;;;12.45;5.05;;;;;;;4.33;79.15;95073.14;1751690;80;21054;-72
2020/12/29 02:51:43;;;;;;;9.53;4.17;;;;;;;4.62;79.57;95064.55;1784302;79;21031;-72
2020/12/29 02:54:13;;;;;;;5.78;2.95;;;;;;;4.88;79.50;95058.42;1784249;80;21134;-72
2020/12/29 02:56:41;;;;;;;6.97;3.67;;;;;;;5.07;79.07;95039.55;1784335;79;21262;-73
2020/12/29 02:59:07;;;;;;;4.10;2.20;;;;;;;5.24;78.85;95031.26;1784162;80;21106;-73
2020/12/29 03:01:34;;;;;;;10.72;4.10;;;;;;;5.33;78.32;95022.08;1784288;79;21670;-73
2020/12/29 03:04:00;;;;;;;6.60;2.75;;;;;;;5.48;77.78;95014.08;1784352;80;21129;-74
2020/12/29 03:06:26;;;;;;;3.77;2.00;;;;;;;5.60;77.39;95017.44;1784301;79;21181;-74
2020/12/29 03:08:53;;;;;;;4.20;1.47;;;;;;;5.73;76.60;95014.34;1784265;80;21134;-73
2020/12/29 03:11:29;;;;;;;9.55;4.58;;;;;;;5.85;76.21;95021.16;1751570;80;21103;-73
2020/12/29 03:13:58;;;;;;;5.17;3.98;;;;;;;5.91;75.75;95015.32;1784285;80;21118;-73
2020/12/29 03:16:25;;;;;;;;;;;;;;;6.03;74.99;95000.41;1786925;79;21459;-72
2020/12/29 03:18:52;;;;;;;4.33;1.10;;;;;;;6.16;73.88;94986.75;1784224;80;20510;-72
2020/12/29 03:21:18;;;;;;;1.60;0.80;;;;;;;6.29;73.16;94978.20;1784299;79;21584;-72
2020/12/29 03:23:45;;;;;;;5.03;2.52;;;;;;;6.41;72.66;94979.64;1784283;80;21047;-73
2020/12/29 03:26:11;;;;;;;0.98;0.72;;;;;;;6.50;71.88;94979.59;1784242;79;21127;-72
2020/12/29 03:28:38;;;;;;;5.22;1.82;;;;;;;6.56;71.39;94947.87;1784240;80;21213;-73
2020/12/29 03:31:07;;;;;;;1.70;1.55;;;;;;;6.62;70.89;94953.30;1784340;79;21023;-72
2020/12/29 03:33:33;;;;;;;3.02;1.80;;;;;;;6.69;69.96;94949.53;1784328;80;21187;-72
2020/12/29 03:36:00;;;;;;;2.30;0.90;;;;;;;6.79;69.66;94941.05;1784271;79;21118;-72
2020/12/29 03:38:27;;;;;;;2.58;0.50;;;;;;;6.91;68.96;94939.75;1784203;80;21609;-73
2020/12/29 03:40:53;;;;;;;1.55;0.70;;;;;;;6.99;68.03;94935.41;1784240;79;21030;-72
2020/12/29 03:43:21;;;;;;;1.25;0.80;;;;;;;7.01;67.91;94938.02;1784385;80;21118;-72
2020/12/29 03:45:49;;;;;;;0.93;0.73;;;;;;;6.97;67.91;94937.09;1784535;79;21493;-73
2020/12/29 03:48:19;;;;;;;2.55;1.50;;;;;;;7.00;68.17;94945.05;1784095;80;21059;-73
2020/12/29 03:50:46;;;;;;;1.10;0.90;;;;;;;6.98;67.71;94941.91;1783461;79;21063;-72
2020/12/29 03:53:12;;;;;;;1.27;0.93;;;;;;;6.96;68.09;94953.02;1784219;80;21439;-73
2020/12/29 03:55:38;;;;;;;0.53;0.53;;;;;;;6.95;68.20;94955.48;1784303;79;21538;-73
2020/12/29 03:58:05;;;;;;;1.20;0.80;;;;;;;6.94;67.19;94960.64;1784080;80;21618;-73
2020/12/29 04:00:31;;;;;;;3.12;1.42;;;;;;;6.97;67.24;94970.73;1784226;79;21030;-73
2020/12/29 04:02:57;;;;;;;2.30;1.40;;;;;;;6.99;68.02;94967.71;1784334;80;21168;-73
2020/12/29 04:05:24;;;;;;;1.37;1.22;;;;;;;6.97;68.10;94983.41;1784250;79;21023;-73
2020/12/29 04:07:51;;;;;;;4.40;1.67;;;;;;;6.95;67.86;94971.63;1784305;80;21145;-72
2020/12/29 04:10:17;;;;;;;12.85;5.20;;;;;;;6.93;68.55;94969.84;1784277;79;22053;-73
2020/12/29 04:12:44;;;;;;;18.37;9.13;;;;;;;6.83;68.66;94968.88;1784267;80;21194;-73
2020/12/29 04:15:10;;;;;;;12.33;5.25;;;;;;;6.74;68.89;94976.23;1784228;79;21579;-73
2020/12/29 04:17:39;;;;;;;2.65;1.57;;;;;;;6.70;68.78;94962.66;1784309;80;21224;-73
2020/12/29 04:20:08;;;;;;;2.05;1.50;;;;;;;6.63;68.84;94955.66;1783797;79;21448;-73
2020/12/29 04:22:35;;;;;;;;;;;;;;;6.57;69.20;94951.58;1786940;80;21180;-73
2020/12/29 04:25:01;;;;;;;6.78;3.67;;;;;;;6.58;69.14;94964.47;1784084;79;20223;-73
2020/12/29 04:27:28;;;;;;;3.25;1.87;;;;;;;6.59;69.59;94960.13;1784288;80;21177;-72
2020/12/29 04:29:54;;;;;;;4.65;2.02;;;;;;;6.61;69.73;94977.29;1784260;79;21039;-73
2020/12/29 04:32:20;;;;;;;9.53;4.53;;;;;;;6.58;69.86;94990.03;1784315;80;21617;-73
2020/12/29 04:34:47;;;;;;;6.70;2.90;;;;;;;6.47;69.77;94981.56;1784270;80;22245;-73
2020/12/29 04:37:16;;;;;;;9.18;4.50;;;;;;;6.41;69.97;94990.94;1784255;79;21075;-73
2020/12/29 04:39:43;;;;;;;10.82;7.10;;;;;;;6.35;70.06;95002.45;1784189;80;21118;-73
2020/12/29 04:42:15;;;;;;;5.00;2.70;;;;;;;6.26;70.05;94999.59;1784176;79;21559;-73
2020/12/29 04:44:43;;;;;;;3.40;2.20;;;;;;;6.13;70.15;95011.57;1784344;80;21185;-72
2020/12/29 04:47:10;;;;;;;4.37;2.02;;;;;;;5.98;70.44;95005.39;1784348;79;21559;-72
2020/12/29 04:49:37;;;;;;;2.12;1.40;;;;;;;5.85;70.52;95015.23;1784362;80;21198;-72
2020/12/29 04:52:08;;;;;;;1.22;1.02;;;;;;;5.78;70.84;95017.62;1784353;79;21070;-72
2020/12/29 04:54:39;;;;;;;5.67;2.47;;;;;;;5.74;70.85;95026.10;1784405;80;21051;-73
2020/12/29 04:57:08;;;;;;;23.38;9.48;;;;;;;5.72;71.19;95030.98;1784409;79;21705;-73
2020/12/29 04:59:34;;;;;;;19.32;7.28;;;;;;;5.82;71.58;95040.63;1784424;80;21256;-73
2020/12/29 05:02:01;;;;;;;14.38;7.53;;;;;;;5.88;71.46;95044.13;1784279;79;21035;-72
2020/12/29 05:04:30;;;;;;;11.60;5.37;;;;;;;5.86;71.52;95058.45;1784315;80;21566;-72
2020/12/29 05:06:57;;;;;;;;;;;;;;;5.85;71.67;95060.13;1786964;79;21597;-72
2020/12/29 05:09:24;;;;;;;14.90;7.65;;;;;;;5.85;71.77;95064.94;1784393;80;20230;-72
2020/12/29 05:11:50;;;;;;;20.90;11.88;;;;;;;5.82;71.73;95070.18;1784369;79;21519;-73
2020/12/29 05:14:17;;;;;;;21.20;10.28;;;;;;;5.80;71.74;95077.19;1784265;80;21153;-73
2020/12/29 05:16:43;;;;;;;22.50;11.18;;;;;;;5.78;71.74;95088.03;1784440;79;21054;-72
2020/12/29 05:19:13;;;;;;;23.00;11.40;;;;;;;5.74;71.76;95087.90;1784371;80;21121;-72
2020/12/29 05:21:40;;;;;;;24.87;10.50;;;;;;;5.73;71.74;95096.28;1784463;79;21103;-72
2020/12/29 05:24:21;;;;;;;91.65;34.85;;;;;;;5.57;72.93;95093.30;1784328;80;21240;-72
2020/12/29 05:26:56;;;;;;;27.50;10.15;;;;;;;5.60;71.83;95098.03;1784307;79;21547;-73
2020/12/29 05:29:23;;;;;;;21.50;8.28;;;;;;;5.85;71.29;95105.25;1784409;80;21051;-73
2020/12/29 05:31:50;;;;;;;17.37;5.85;;;;;;;6.00;70.89;95101.86;1784426;79;21146;-73
2020/12/29 05:34:23;;;;;;;25.12;6.95;;;;;;;6.10;70.36;95117.63;1784388;80;21194;-72
2020/12/29 05:36:49;;;;;;;12.75;4.55;;;;;;;6.19;70.45;95121.88;1784479;79;21129;-73
2020/12/29 05:39:16;;;;;;;7.83;4.30;;;;;;;6.25;70.43;95136.50;1784279;80;21039;-73
2020/12/29 05:41:45;;;;;;;1.98;1.30;;;;;;;6.35;69.44;95142.31;1784335;79;21055;-73
2020/12/29 05:44:31;;;;;;;5.50;2.80;;;;;;;6.40;68.83;95144.80;1784492;80;21090;-73
2020/12/29 05:47:00;;;;;;;3.62;1.50;;;;;;;6.46;68.20;95147.56;1783660;79;21114;-72
2020/12/29 05:49:27;;;;;;;4.83;1.90;;;;;;;6.51;67.88;95150.64;1784402;80;21595;-72
2020/12/29 05:51:55;;;;;;;1.27;1.02;;;;;;;6.50;67.72;95163.86;1784379;79;21046;-73
2020/12/29 05:54:24;;;;;;;4.42;1.80;;;;;;;6.48;67.69;95158.78;1784294;80;21468;-72
2020/12/29 05:56:54;;;;;;;3.47;1.90;;;;;;;6.42;67.95;95164.12;1784396;79;21082;-73
2020/12/29 05:59:21;;;;;;;4.60;3.10;;;;;;;6.39;68.10;95177.41;1784185;80;21015;-72
2020/12/29 06:01:52;;;;;;;2.02;1.32;;;;;;;6.36;68.07;95189.61;1784422;79;22105;-72
2020/12/29 06:04:19;;;;;;;4.90;3.15;;;;;;;6.32;68.32;95195.38;1784385;80;21110;-72
2020/12/29 06:06:47;;;;;;;4.05;2.02;;;;;;;6.29;68.79;95201.41;1784344;79;21483;-73
2020/12/29 06:09:18;;;;;;;4.22;3.02;;;;;;;6.25;69.21;95201.83;1784509;80;21054;-72
2020/12/29 06:11:53;;;;;;;2.02;1.70;;;;;;;6.24;69.56;95219.07;1784336;79;21056;-72
2020/12/29 06:14:24;;;;;;;8.10;5.53;;;;;;;6.20;69.73;95231.00;1784333;80;21554;-73
2020/12/29 06:16:54;;;;;;;15.93;9.65;;;;;;;6.16;69.92;95226.59;1784236;79;21074;-73
2020/12/29 06:19:28;;;;;;;9.93;6.10;;;;;;;6.15;70.05;95242.47;1784005;80;21118;-73
2020/12/29 06:22:10;;;;;;;2.60;2.10;;;;;;;6.12;70.00;95261.38;1784397;79;21018;-73
2020/12/29 06:24:42;;;;;;;1.60;1.45;;;;;;;6.01;70.61;95268.19;1784391;80;21190;-73
2020/12/29 06:27:10;;;;;;;1.62;0.72;;;;;;;5.93;70.60;95283.77;1784467;79;21249;-73
2020/12/29 06:29:40;;;;;;;1.17;0.85;;;;;;;5.84;70.95;95303.09;1784430;80;21161;-73
2020/12/29 06:32:17;;;;;;;1.15;0.57;;;;;;;5.80;71.27;95319.59;1784296;79;21145;-73
2020/12/29 06:34:44;;;;;;;1.65;0.93;;;;;;;5.74;72.20;95336.44;1784320;80;21039;-73
2020/12/29 06:37:24;;;;;;;3.20;1.40;;;;;;;5.68;72.17;95339.58;1784308;79;21503;-73
2020/12/29 06:40:01;;;;;;;2.55;1.05;;;;;;;5.71;72.52;95334.91;1784346;80;22140;-73
2020/12/29 06:42:28;;;;;;;3.05;1.98;;;;;;;5.64;72.31;95342.91;1784339;80;21102;-73
2020/12/29 06:44:58;;;;;;;3.92;2.52;;;;;;;5.59;72.55;95363.73;1784198;79;21058;-73
2020/12/29 06:47:26;;;;;;;2.15;1.57;;;;;;;5.56;72.57;95377.25;1784224;80;21156;-72
2020/12/29 06:49:53;;;;;;;5.53;1.77;;;;;;;5.53;72.59;95391.28;1784439;80;21035;-73
2020/12/29 06:52:29;;;;;;;2.27;0.80;;;;;;;5.54;72.60;95394.20;1784372;80;21286;-73
2020/12/29 06:55:00;;;;;;;2.55;1.65;;;;;;;5.53;73.13;95400.69;1784101;79;21488;-73
2020/12/29 06:57:41;;;;;;;3.33;1.50;;;;;;;5.55;73.02;95419.97;1784182;80;21165;-73
2020/12/29 07:00:16;;;;;;;2.15;1.50;;;;;;;5.59;72.95;95431.69;1784145;79;21154;-72
2020/12/29 07:02:48;;;;;;;1.82;0.90;;;;;;;5.66;72.98;95449.50;1784441;80;21079;-73
2020/12/29 07:05:28;;;;;;;2.95;1.32;;;;;;;5.68;72.40;95461.28;1783722;79;21705;-73
2020/12/29 07:08:01;;;;;;;18.52;11.05;;;;;;;5.70;71.98;95473.05;1784328;80;21122;-73
2020/12/29 07:10:44;;;;;;;34.23;20.30;;;;;;;5.66;71.90;95489.80;1784296;79;21126;-74
2020/12/29 07:13:17;;;;;;;2.60;2.10;;;;;;;5.65;71.13;95476.69;1784293;80;21081;-73
2020/12/29 07:15:54;;;;;;;1.72;0.98;;;;;;;5.68;70.95;95501.58;1784284;79;21055;-73
2020/12/29 07:18:23;;;;;;;1.10;0.68;;;;;;;5.71;70.40;95504.98;1784241;80;22228;-72
2020/12/29 07:20:53;;;;;;;1.55;0.82;;;;;;;5.82;69.87;95521.66;1784128;79;21532;-72
2020/12/29 07:23:21;;;;;;;3.20;0.80;;;;;;;5.82;70.14;95539.12;1783853;80;21590;-73
2020/12/29 07:25:49;;;;;;;2.35;2.15;;;;;;;5.82;69.53;95541.80;1751638;80;21123;-73
2020/12/29 07:28:20;;;;;;;4.40;3.70;;;;;;;5.80;69.43;95567.63;1784441;80;21126;-73
2020/12/29 07:30:46;;;;;;;3.67;3.10;;;;;;;5.84;69.47;95571.30;1783488;79;21200;-74
2020/12/29 07:33:12;;;;;;;2.50;1.90;;;;;;;5.85;69.16;95589.00;1784217;80;21745;-73
2020/12/29 07:35:39;;;;;;;2.15;1.30;;;;;;;5.80;68.23;95595.84;1784225;79;21523;-73
2020/12/29 07:38:35;;;;;;;2.20;1.57;;;;;;;5.83;67.93;95619.43;1784253;80;21210;-73
2020/12/29 07:41:02;;;;;;;4.20;3.83;;;;;;;5.83;66.83;95630.73;1685728;85;21487;-74
2020/12/29 07:43:28;;;;;;;1.85;1.47;;;;;;;5.66;67.37;95658.28;1682509;84;22236;-74
2020/12/29 07:45:54;;;;;;;1.70;1.27;;;;;;;5.58;67.08;95647.72;1682706;84;21216;-73
2020/12/29 07:48:24;;;;;;;1.60;1.05;;;;;;;5.61;66.26;95669.14;1682662;84;21232;-73
2020/12/29 07:51:00;;;;;;;1.82;1.00;;;;;;;5.53;65.35;95655.09;1682671;85;21062;-73
2020/12/29 07:53:26;;;;;;;2.02;1.50;;;;;;;5.49;65.78;95666.20;1653236;85;21062;-73
2020/12/29 07:55:52;;;;;;;1.85;1.22;;;;;;;5.43;65.47;95688.34;1682656;84;21481;-73
2020/12/29 07:58:19;;;;;;;0.93;0.70;;;;;;;5.39;65.55;95695.44;1682469;84;21224;-73
2020/12/29 08:00:45;;;;;;;1.92;1.50;;;;;;;5.41;64.81;95699.95;1682686;84;21134;-73
2020/12/29 08:03:12;;;;;;;3.10;2.05;;;;;;;5.21;65.04;95703.88;1682617;84;21248;-73
2020/12/29 08:05:39;;;;;;;1.98;1.50;;;;;;;5.13;64.88;95727.41;1682626;85;21063;-74
2020/12/29 08:08:07;;;;;;;1.92;1.32;;;;;;;5.08;65.10;95750.32;1682698;85;21300;-73
2020/12/29 08:10:36;;;;;;;2.25;1.47;;;;;;;5.02;65.06;95738.88;1682762;84;21263;-73
2020/12/29 08:13:06;;;;;;;3.10;2.27;;;;;;;4.99;64.96;95770.36;1682787;85;21117;-73
2020/12/29 08:15:34;;;;;;;3.37;2.45;;;;;;;4.97;65.56;95775.23;1682550;84;21078;-73
2020/12/29 08:18:19;;;;;;;3.35;1.85;;;;;;;4.95;65.40;95784.66;1682563;84;21169;-73
2020/12/29 08:20:54;;;;;;;8.35;3.85;;;;;;;4.89;65.54;95792.58;1682812;84;21542;-72
2020/12/29 08:26:09;;;;;;;2.45;1.90;;;;;;;4.84;65.47;95810.89;1698251;83;21071;-73
2020/12/29 08:28:37;;;;;;;5.17;2.98;;;;;;;4.82;64.94;95809.06;1680873;85;21216;-73
2020/12/29 08:31:04;;;;;;;4.47;2.87;;;;;;;4.96;64.47;95821.96;1680911;84;21145;-73
2020/12/29 08:33:30;;;;;;;4.62;2.52;;;;;;;4.90;64.71;95836.55;1680723;84;21225;-73
2020/12/29 08:36:01;;;;;;;2.98;1.55;;;;;;;4.91;65.01;95845.40;1680667;84;21562;-73
2020/12/29 08:38:42;;;;;;;4.05;2.20;;;;;;;4.94;64.33;95846.93;1680805;84;21125;-73
2020/12/29 08:41:18;;;;;;;3.52;1.85;;;;;;;4.98;64.32;95849.84;1680773;84;21083;-72
2020/12/29 08:43:49;;;;;;;2.10;1.52;;;;;;;4.97;63.88;95861.67;1651653;85;21141;-73
2020/12/29 08:46:22;;;;;;;2.45;1.98;;;;;;;5.02;63.95;95870.41;1680237;84;21215;-73
2020/12/29 08:49:04;;;;;;;3.17;1.87;;;;;;;5.05;64.02;95859.65;1680807;85;21074;-73
2020/12/29 08:51:32;;;;;;;2.17;1.20;;;;;;;5.09;63.37;95880.77;1680799;84;21479;-73
2020/12/29 08:54:15;;;;;;;3.12;1.98;;;;;;;5.14;62.80;95872.63;1680930;84;21070;-71
2020/12/29 08:56:43;;;;;;;2.52;1.40;;;;;;;5.16;62.07;95871.78;1680842;84;21495;-73
2020/12/29 08:59:14;;;;;;;3.87;2.42;;;;;;;5.19;62.86;95871.18;1680694;85;21278;-73
2020/12/29 09:01:42;;;;;;;6.55;6.05;;;;;;;5.20;62.78;95887.53;1680828;84;21078;-73
2020/12/29 09:07:15;;;;;;;2.02;1.70;;;;;;;5.31;62.37;95885.48;1857606;76;22604;-72
2020/12/29 09:09:56;;;;;;;1.40;1.12;;;;;;;5.29;62.53;95893.81;1826942;78;21125;-73
2020/12/29 09:12:31;;;;;;;5.25;1.47;;;;;;;5.31;62.41;95907.76;1827020;78;21593;-73
2020/12/29 09:15:07;;;;;;;1.92;1.00;;;;;;;5.32;62.32;95905.31;1826948;77;21106;-73
2020/12/29 09:17:44;;;;;;;2.90;1.80;;;;;;;5.42;61.68;95908.91;1827108;78;21106;-73
2020/12/29 09:20:25;;;;;;;2.52;1.80;;;;;;;5.45;61.93;95909.09;1827034;77;21495;-72
2020/12/29 09:23:15;;;;;;;2.75;1.50;;;;;;;5.51;61.36;95903.88;1728964;83;21074;-74
2020/12/29 09:25:43;;;;;;;3.70;1.70;;;;;;;5.55;61.05;95916.95;1728899;82;22139;-74
2020/12/29 09:28:24;;;;;;;;;;;;;;;5.62;59.25;95916.56;1731364;83;21614;-73
2020/12/29 09:31:24;;;;;;;1.90;1.40;;;;;;;5.68;58.86;95924.78;1728872;81;20222;-72
2020/12/29 09:33:51;;;;;;;3.08;2.02;;;;;;;5.77;58.98;95921.64;1693413;84;21582;-72
2020/12/29 09:36:25;;;;;;;2.45;1.85;;;;;;;5.83;59.07;95916.42;1725280;82;21482;-73
2020/12/29 09:38:54;;;;;;;2.65;1.22;;;;;;;5.85;58.47;95912.08;1708344;82;21215;-72
2020/12/29 09:41:22;;;;;;;1.92;1.07;;;;;;;5.99;58.04;95920.17;1737847;82;21160;-72
2020/12/29 09:43:48;;;;;;;6.15;2.90;;;;;;;6.11;56.97;95915.06;1737720;82;21136;-73
2020/12/29 09:46:15;;;;;;;3.98;2.30;;;;;;;6.16;56.26;95913.08;1737662;82;21640;-72
2020/12/29 09:48:42;;;;;;;6.20;3.37;;;;;;;6.25;56.73;95906.43;1737799;82;21619;-72
2020/12/29 09:51:13;;;;;;;3.37;1.30;;;;;;;6.30;56.74;95904.95;1737655;82;22201;-72
2020/12/29 09:53:39;;;;;;;2.30;1.27;;;;;;;6.35;56.06;95912.92;1737795;82;21195;-74
2020/12/29 09:56:06;;;;;;;3.30;1.90;;;;;;;6.48;55.31;95918.80;1737626;82;21510;-73
2020/12/29 09:58:32;;;;;;;3.10;2.02;;;;;;;6.60;53.82;95916.93;1737794;82;21215;-73
2020/12/29 10:00:58;;;;;;;5.00;2.65;;;;;;;6.63;55.57;95931.11;1737720;82;21131;-73
2020/12/29 10:03:25;;;;;;;4.65;3.33;;;;;;;6.66;55.85;95927.00;1737686;82;21212;-73
2020/12/29 10:05:51;;;;;;;3.00;2.10;;;;;;;6.68;56.48;95922.14;1737642;82;21140;-73
2020/12/29 10:08:18;;;;;;;5.20;3.60;;;;;;;6.68;55.51;95935.59;1737672;82;21685;-73
2020/12/29 10:10:44;;;;;;;8.15;5.12;;;;;;;6.70;56.37;95936.08;1737658;82;21032;-73
2020/12/29 10:13:10;;;;;;;5.40;3.67;;;;;;;6.74;55.13;95941.88;1737767;82;21152;-73
2020/12/29 10:15:37;;;;;;;4.08;2.05;;;;;;;6.77;55.58;95949.36;1737758;82;21213;-73
2020/12/29 10:18:03;;;;;;;2.35;1.70;;;;;;;6.80;55.81;95953.33;1737138;82;21620;-73
2020/12/29 10:20:29;;;;;;;4.33;1.80;;;;;;;6.88;55.57;95951.81;1737177;82;21210;-73
2020/12/29 10:22:56;;;;;;;5.25;2.72;;;;;;;6.94;55.22;95953.28;1737050;82;21088;-73
2020/12/29 10:25:22;;;;;;;2.35;1.60;;;;;;;7.00;55.26;95976.28;1737233;82;21049;-73
2020/12/29 10:27:48;;;;;;;1.82;1.17;;;;;;;7.02;54.32;95959.28;1737196;82;21217;-74
2020/12/29 10:30:15;;;;;;;2.10;1.62;;;;;;;7.05;55.01;95972.92;1737093;82;21688;-73
2020/12/29 10:32:41;;;;;;;2.98;1.70;;;;;;;7.11;54.42;95982.23;1737000;81;21148;-73
2020/12/29 10:35:08;;;;;;;2.05;1.30;;;;;;;7.12;54.14;95985.17;1737088;82;21184;-73
2020/12/29 10:37:34;;;;;;;2.67;1.30;;;;;;;7.16;53.81;95999.59;1737136;82;21041;-73
2020/12/29 10:40:01;;;;;;;6.40;2.85;;;;;;;7.15;54.91;96004.20;1737162;82;21713;-73
2020/12/29 10:42:27;;;;;;;3.50;1.80;;;;;;;7.11;53.93;96000.53;1737057;82;21502;-73
2020/12/29 10:44:56;;;;;;;4.80;3.05;;;;;;;7.09;55.08;96006.75;1737227;82;21109;-74
2020/12/29 10:47:23;;;;;;;;;;;;;;;7.10;54.59;95998.16;1739807;82;21128;-72
2020/12/29 10:49:49;;;;;;;4.83;2.65;;;;;;;7.08;55.26;95991.70;1737206;82;20353;-72
2020/12/29 10:52:15;;;;;;;2.72;1.22;;;;;;;7.12;54.81;96015.59;1737071;82;21633;-73
2020/12/29 10:54:42;;;;;;;3.20;2.02;;;;;;;7.21;54.06;95988.72;1737103;82;21625;-72
2020/12/29 10:57:08;;;;;;;2.75;1.72;;;;;;;7.23;53.48;95988.64;1737051;82;21493;-72
2020/12/29 10:59:34;;;;;;;5.42;1.80;;;;;;;7.20;53.18;95983.09;1737154;82;21648;-73
2020/12/29 11:02:01;;;;;;;3.85;1.50;;;;;;;7.17;53.37;95983.69;1737113;82;21529;-72
2020/12/29 11:04:27;;;;;;;3.33;1.75;;;;;;;7.16;53.41;95978.05;1737125;82;22078;-72
2020/12/29 11:06:53;;;;;;;2.92;1.52;;;;;;;7.21;52.70;95968.52;1737072;82;21171;-72
2020/12/29 11:09:20;;;;;;;5.05;2.30;;;;;;;7.17;52.80;95970.21;1737052;82;21226;-72
2020/12/29 11:11:47;;;;;;;2.98;1.85;;;;;;;7.19;52.57;95976.11;1737038;82;21485;-72
2020/12/29 11:14:13;;;;;;;3.15;1.82;;;;;;;7.23;52.30;95976.52;1737187;82;21156;-72
2020/12/29 11:16:40;;;;;;;6.97;1.70;;;;;;;7.24;52.62;95977.31;1737140;82;22063;-74
2020/12/29 11:19:06;;;;;;;2.42;1.77;;;;;;;7.25;52.50;95977.55;1737155;82;21219;-73
2020/12/29 11:21:32;;;;;;;3.58;1.87;;;;;;;7.28;52.33;95981.00;1737061;82;21117;-72
2020/12/29 11:23:59;;;;;;;8.75;4.08;;;;;;;7.33;52.50;95983.55;1737100;82;21584;-72
2020/12/29 11:26:25;;;;;;;3.00;2.05;;;;;;;7.33;52.52;95981.65;1737016;82;21482;-72
2020/12/29 11:28:52;;;;;;;4.85;2.77;;;;;;;7.34;52.93;95989.18;1737127;82;22152;-72
2020/12/29 11:31:20;;;;;;;2.58;1.20;;;;;;;7.33;53.05;95991.08;1737037;82;21162;-72
2020/12/29 11:33:46;;;;;;;2.93;1.80;;;;;;;7.36;51.96;95999.13;1737324;82;21490;-73
2020/12/29 11:36:17;;;;;;;6.40;3.40;;;;;;;7.36;52.37;95999.13;1737195;82;21137;-72
2020/12/29 11:38:44;;;;;;;3.08;2.08;;;;;;;7.39;53.22;96007.13;1737068;82;21166;-73
2020/12/29 11:41:11;;;;;;;4.03;2.35;;;;;;;7.44;51.95;96013.20;1737155;82;22223;-73
2020/12/29 11:43:38;;;;;;;3.92;2.85;;;;;;;7.47;51.68;96018.52;1736996;82;21085;-72
2020/12/29 11:46:05;;;;;;;5.80;4.85;;;;;;;7.55;51.24;96023.95;1736958;82;21486;-73
2020/12/29 11:48:32;;;;;;;6.60;5.70;;;;;;;7.57;51.35;96021.75;1737083;82;21148;-74
2020/12/29 11:50:58;;;;;;;2.20;1.70;;;;;;;7.59;51.23;96022.23;1737170;82;21104;-73
2020/12/29 11:53:25;;;;;;;2.58;1.60;;;;;;;7.63;50.63;96021.07;1737092;82;21482;-73